Orchards, Washington
Current Conditions -  °F | °C
As of 12:53 PM on Thursday 23 Oct 2014 (Local Time) from KVUO Reporting Station
Light Rain Light Rain  
Wind Chill: 57°   Ceiling: 6000
Heat Index: 57°   Visibility: 10mi
Dew Point: 51°   Wind: 7mph
Humidity: 81%   Direction: 160°SSE
Pressure: 29.89"   Gusts: NA
Location:  45.6907°N, 122.574°W
Report Text: KVUO 231953Z AUTO 16006KT 10SM -RA BKN060 OVC070 14/11 A2989 RMK AO2 RAB17 SLP123 P0002 T01390106
Loading
Personal Weather Stations






























Interactive Weather Map
Tropical Storm Tracking
New forecast layout! Learn more

10-Day Weather Forecast

Advertisements
Track Severe Weather on mobile